createdAt,value
2024-01-19T00:01:47.998Z,16.73
2024-01-19T00:04:14.580Z,19.33
2024-01-19T00:06:41.164Z,14.43
2024-01-19T00:09:08.512Z,22.45
2024-01-19T00:11:35.235Z,26.40
2024-01-19T00:14:02.006Z,29.63
2024-01-19T00:16:28.731Z,19.42
2024-01-19T00:18:55.403Z,13.93
2024-01-19T00:21:22.100Z,15.90
2024-01-19T00:23:49.080Z,17.25
2024-01-19T00:26:15.787Z,13.10
2024-01-19T00:28:43.037Z,11.02
2024-01-19T00:31:09.778Z,15.07
2024-01-19T00:33:36.401Z,48.25
2024-01-19T00:36:03.206Z,24.67
2024-01-19T00:38:29.970Z,23.00
2024-01-19T00:40:56.584Z,15.60
2024-01-19T00:43:23.201Z,13.60
2024-01-19T00:45:49.927Z,13.50
2024-01-19T00:48:16.570Z,12.45
2024-01-19T00:50:43.284Z,12.20
2024-01-19T00:53:10.138Z,14.13
2024-01-19T00:55:36.873Z,12.45
2024-01-19T00:58:03.478Z,13.68
2024-01-19T01:00:30.116Z,12.38
2024-01-19T01:02:58.420Z,14.15
2024-01-19T01:05:25.285Z,16.27
2024-01-19T01:07:52.032Z,18.55
2024-01-19T01:10:19.365Z,24.95
2024-01-19T01:12:45.982Z,17.75
2024-01-19T01:15:15.317Z,19.58
2024-01-19T01:17:42.424Z,14.68
2024-01-19T01:20:12.094Z,9.32
2024-01-19T01:22:38.951Z,13.93
2024-01-19T01:25:05.800Z,9.18
2024-01-19T01:27:32.427Z,13.73
2024-01-19T01:29:59.135Z,10.70
2024-01-19T01:32:25.818Z,13.50
2024-01-19T01:34:52.486Z,9.02
2024-01-19T01:37:19.066Z,7.38
2024-01-19T01:39:45.696Z,9.40
2024-01-19T01:42:12.363Z,9.95
2024-01-19T01:44:39.284Z,8.75
2024-01-19T01:47:05.909Z,9.63
2024-01-19T01:49:32.661Z,6.32
2024-01-19T01:51:59.513Z,8.07
2024-01-19T01:54:26.871Z,6.78
2024-01-19T01:56:54.460Z,7.22
2024-01-19T01:59:21.343Z,6.53
2024-01-19T02:01:48.133Z,9.55
2024-01-19T02:04:16.568Z,5.85
2024-01-19T02:06:43.283Z,6.80
2024-01-19T02:09:10.558Z,7.20
2024-01-19T02:11:38.511Z,11.30
2024-01-19T02:14:07.038Z,11.35
2024-01-19T02:16:34.309Z,7.57
2024-01-19T02:19:00.995Z,9.05
2024-01-19T02:21:27.982Z,11.73
2024-01-19T02:23:56.321Z,11.32
2024-01-19T02:26:23.639Z,10.50
2024-01-19T02:28:51.981Z,8.30
2024-01-19T02:31:18.518Z,9.95
2024-01-19T02:33:45.137Z,8.82
2024-01-19T02:36:11.790Z,8.10
2024-01-19T02:38:38.404Z,11.27
2024-01-19T02:41:05.129Z,13.90
2024-01-19T02:43:31.704Z,7.10
2024-01-19T02:45:58.352Z,12.70
2024-01-19T02:48:25.177Z,10.30
2024-01-19T02:50:52.256Z,8.98
2024-01-19T02:53:19.002Z,10.45
2024-01-19T02:55:45.613Z,8.02
2024-01-19T02:58:12.230Z,13.10
2024-01-19T03:00:38.868Z,8.52
2024-01-19T03:03:05.709Z,10.90
2024-01-19T03:05:33.375Z,10.88
2024-01-19T03:08:00.034Z,11.27
2024-01-19T03:10:26.579Z,10.65
2024-01-19T03:12:53.189Z,13.43
2024-01-19T03:15:19.770Z,16.05
2024-01-19T03:17:46.589Z,11.65
2024-01-19T03:20:14.572Z,10.15
2024-01-19T03:22:41.183Z,16.55
2024-01-19T03:25:08.128Z,10.15
2024-01-19T03:27:34.776Z,10.85
2024-01-19T03:30:01.605Z,9.95
2024-01-19T03:32:28.454Z,9.68
2024-01-19T03:34:55.163Z,11.60
2024-01-19T03:37:21.769Z,11.18
2024-01-19T03:39:48.377Z,10.18
2024-01-19T03:42:15.010Z,17.10
2024-01-19T03:44:42.259Z,10.82
2024-01-19T03:47:08.927Z,11.52
2024-01-19T03:49:35.648Z,8.75
2024-01-19T03:52:05.025Z,9.38
2024-01-19T03:54:33.680Z,13.10
2024-01-19T03:57:04.148Z,8.13
2024-01-19T03:59:30.803Z,13.32
2024-01-19T04:01:57.458Z,16.58
2024-01-19T04:04:25.179Z,9.77
2024-01-19T04:06:53.665Z,9.52
2024-01-19T04:09:21.024Z,11.30
2024-01-19T04:11:47.704Z,10.93
2024-01-19T04:14:14.337Z,9.48
2024-01-19T04:16:41.221Z,8.80
2024-01-19T04:19:08.707Z,11.60
2024-01-19T04:21:35.405Z,9.13
2024-01-19T04:24:03.187Z,8.05
2024-01-19T04:26:29.902Z,11.15
2024-01-19T04:28:56.644Z,10.30
2024-01-19T04:31:23.535Z,11.35
2024-01-19T04:33:50.552Z,8.68
2024-01-19T04:36:18.953Z,11.65
2024-01-19T04:38:46.478Z,7.90
2024-01-19T04:41:13.189Z,11.20
2024-01-19T04:43:39.827Z,11.63
2024-01-19T04:46:06.439Z,9.30
2024-01-19T04:48:33.647Z,10.65
2024-01-19T04:51:00.521Z,11.32
2024-01-19T04:53:27.150Z,9.00
2024-01-19T04:55:53.810Z,9.30
2024-01-19T04:58:20.454Z,12.70
2024-01-19T05:00:48.918Z,10.95
2024-01-19T05:03:16.506Z,12.95
2024-01-19T05:05:43.278Z,9.52
2024-01-19T05:08:09.892Z,8.45
2024-01-19T05:10:36.431Z,11.43
2024-01-19T05:13:04.436Z,8.32
2024-01-19T05:15:31.016Z,8.00
2024-01-19T05:17:58.857Z,9.85
2024-01-19T05:20:25.613Z,10.30
2024-01-19T05:22:52.527Z,8.13
2024-01-19T05:25:19.838Z,16.42
2024-01-19T05:27:46.897Z,7.45
2024-01-19T05:30:14.948Z,8.50
2024-01-19T05:32:41.781Z,11.90
2024-01-19T05:35:09.838Z,10.38
2024-01-19T05:37:36.517Z,11.48
2024-01-19T05:40:04.721Z,10.40
2024-01-19T05:42:31.372Z,12.32
2024-01-19T05:44:57.999Z,16.42
2024-01-19T05:47:24.785Z,18.85
2024-01-19T05:49:51.397Z,22.25
2024-01-19T05:52:19.553Z,24.60
2024-01-19T05:54:46.204Z,25.17
2024-01-19T05:57:12.898Z,21.75
2024-01-19T05:59:40.885Z,17.77
2024-01-19T06:02:08.290Z,20.05
2024-01-19T06:04:38.034Z,14.77
2024-01-19T06:07:05.172Z,17.92
2024-01-19T06:09:32.915Z,15.75
2024-01-19T06:12:00.662Z,15.90
2024-01-19T06:14:27.310Z,12.77
2024-01-19T06:16:54.182Z,11.32
2024-01-19T06:19:20.899Z,8.43
2024-01-19T06:21:47.785Z,8.65
2024-01-19T06:24:18.540Z,8.00
2024-01-19T06:26:49.458Z,9.18
2024-01-19T06:29:16.524Z,8.10
2024-01-19T06:31:44.872Z,9.43
2024-01-19T06:34:12.604Z,9.02
2024-01-19T06:36:39.475Z,10.85
2024-01-19T06:39:08.461Z,8.63
2024-01-19T06:41:35.813Z,9.15
2024-01-19T06:44:02.624Z,9.23
2024-01-19T06:46:30.329Z,10.25
2024-01-19T06:48:57.495Z,12.63
2024-01-19T06:51:25.659Z,10.13
2024-01-19T06:53:52.610Z,12.02
2024-01-19T06:56:19.343Z,12.88
2024-01-19T06:58:45.940Z,13.10
2024-01-19T07:01:12.852Z,12.73
2024-01-19T07:03:39.607Z,8.45
2024-01-19T07:06:06.587Z,11.70
2024-01-19T07:08:33.322Z,10.73
2024-01-19T07:10:59.934Z,14.15
2024-01-19T07:13:26.571Z,10.55
2024-01-19T07:15:53.159Z,14.10
2024-01-19T07:18:19.881Z,11.80
2024-01-19T07:20:46.833Z,14.63
2024-01-19T07:23:13.536Z,14.20
2024-01-19T07:25:40.983Z,12.30
2024-01-19T07:28:07.599Z,12.80
2024-01-19T07:30:34.240Z,10.68
2024-01-19T07:33:06.969Z,13.57
2024-01-19T07:35:37.966Z,11.48
2024-01-19T07:38:05.122Z,9.60
2024-01-19T07:40:31.762Z,12.05
2024-01-19T07:42:58.383Z,12.75
2024-01-19T07:45:24.963Z,12.70
2024-01-19T07:47:51.635Z,13.77
2024-01-19T07:50:18.447Z,15.77
2024-01-19T07:52:45.138Z,14.35
2024-01-19T07:55:11.673Z,17.55
2024-01-19T07:57:38.359Z,14.18
2024-01-19T08:00:05.621Z,15.18
2024-01-19T08:02:33.601Z,17.42
2024-01-19T08:05:00.238Z,15.63
2024-01-19T08:07:27.618Z,11.95
2024-01-19T08:09:54.254Z,15.48
2024-01-19T08:12:20.982Z,17.70
2024-01-19T08:14:47.994Z,22.15
2024-01-19T08:17:14.649Z,18.05
2024-01-19T08:19:41.266Z,15.07
2024-01-19T08:22:08.438Z,14.27
2024-01-19T08:24:38.705Z,12.50
2024-01-19T08:27:05.950Z,15.52
2024-01-19T08:29:34.808Z,25.15
2024-01-19T08:32:01.405Z,19.40
2024-01-19T08:34:29.056Z,14.63
2024-01-19T08:36:55.703Z,16.42
2024-01-19T08:39:22.575Z,21.35
2024-01-19T08:41:49.308Z,15.40
2024-01-19T08:44:16.512Z,17.15
2024-01-19T08:46:47.033Z,20.85
2024-01-19T08:49:13.971Z,19.08
2024-01-19T08:51:40.755Z,19.38
2024-01-19T08:54:07.826Z,14.98
2024-01-19T08:56:38.869Z,18.30
2024-01-19T08:59:10.045Z,15.77
2024-01-19T09:01:36.989Z,21.10
2024-01-19T09:04:04.356Z,20.63
2024-01-19T09:06:32.020Z,18.20
2024-01-19T09:09:02.492Z,17.70
2024-01-19T09:11:29.280Z,16.05
2024-01-19T09:13:56.008Z,14.93
2024-01-19T09:16:22.606Z,17.27
2024-01-19T09:18:49.424Z,20.75
2024-01-19T09:21:20.541Z,21.17
2024-01-19T09:23:47.323Z,14.80
2024-01-19T09:26:21.190Z,17.23
2024-01-19T09:28:48.691Z,15.25
2024-01-19T09:31:16.249Z,21.45
2024-01-19T09:33:43.875Z,15.13
2024-01-19T09:36:10.856Z,17.52
2024-01-19T09:38:38.564Z,13.35
2024-01-19T09:41:37.750Z,18.83
2024-01-19T09:44:11.807Z,20.13
2024-01-19T09:46:53.601Z,17.13
2024-01-19T09:49:44.803Z,16.83
2024-01-19T09:52:50.813Z,15.27
2024-01-19T09:55:18.174Z,17.77
2024-01-19T09:57:47.167Z,18.33
2024-01-19T10:00:15.656Z,13.48
2024-01-19T10:02:46.884Z,20.13
2024-01-19T10:05:15.127Z,21.35
2024-01-19T10:07:56.417Z,18.27
2024-01-19T10:10:23.190Z,21.77
2024-01-19T10:12:49.805Z,17.80
2024-01-19T10:15:18.640Z,15.10
2024-01-19T10:17:46.602Z,17.15
2024-01-19T10:20:17.396Z,18.45
2024-01-19T10:22:44.318Z,15.65
2024-01-19T10:25:12.899Z,15.73
2024-01-19T10:27:55.094Z,11.25
2024-01-19T10:30:29.694Z,15.00
2024-01-19T10:33:08.433Z,15.00
2024-01-19T10:35:38.994Z,14.82
2024-01-19T10:38:08.520Z,11.70
2024-01-19T10:40:35.822Z,10.10
2024-01-19T10:43:04.303Z,12.50
2024-01-19T10:45:32.881Z,11.85
2024-01-19T10:48:01.918Z,10.52
2024-01-19T10:50:29.707Z,12.50
2024-01-19T10:52:58.309Z,8.48
2024-01-19T10:55:27.357Z,10.27
2024-01-19T10:57:57.423Z,9.90
2024-01-19T11:00:29.135Z,9.40
2024-01-19T11:02:58.230Z,8.63
2024-01-19T11:05:26.421Z,8.77
2024-01-19T11:08:01.551Z,11.13
2024-01-19T11:10:31.129Z,8.48
2024-01-19T11:13:03.226Z,6.50
2024-01-19T11:15:42.060Z,8.40
2024-01-19T11:18:08.936Z,9.80
2024-01-19T11:20:36.156Z,7.55
2024-01-19T11:23:04.162Z,11.13
2024-01-19T11:25:54.202Z,7.75
2024-01-19T11:28:30.740Z,7.28
2024-01-19T11:31:13.019Z,8.73
2024-01-19T11:33:39.969Z,5.60
2024-01-19T11:36:07.118Z,5.00
2024-01-19T11:38:39.656Z,8.55
2024-01-19T11:41:06.574Z,7.30
2024-01-19T11:43:43.144Z,6.80
2024-01-19T11:46:12.898Z,8.65
2024-01-19T11:48:43.978Z,6.68
2024-01-19T11:51:36.711Z,7.43
2024-01-19T11:54:05.419Z,7.00
2024-01-19T11:56:32.637Z,9.70
2024-01-19T11:58:59.866Z,12.18
2024-01-19T12:01:26.647Z,13.90
2024-01-19T12:03:54.758Z,13.95
2024-01-19T12:06:24.898Z,19.70
2024-01-19T12:09:10.485Z,11.85
2024-01-19T12:11:37.478Z,7.18
2024-01-19T12:14:06.286Z,16.23
2024-01-19T12:16:33.777Z,8.63
2024-01-19T12:19:00.903Z,10.48
2024-01-19T12:21:28.804Z,10.85
2024-01-19T12:23:59.091Z,18.30
2024-01-19T12:26:25.881Z,40.33
2024-01-19T12:28:53.534Z,75.53
2024-01-19T12:31:38.878Z,40.03
2024-01-19T12:34:13.524Z,44.40
2024-01-19T12:36:40.701Z,8.93
2024-01-19T12:39:12.135Z,39.25
2024-01-19T12:41:42.963Z,80.90
2024-01-19T12:44:09.689Z,28.05
2024-01-19T12:46:36.412Z,35.47
2024-01-19T12:49:04.402Z,10.18
2024-01-19T12:51:31.896Z,14.95
2024-01-19T12:53:58.937Z,11.73
2024-01-19T12:56:30.313Z,9.77
2024-01-19T12:59:11.661Z,66.47
2024-01-19T13:01:42.438Z,66.50
2024-01-19T13:04:09.348Z,22.60
2024-01-19T13:06:42.965Z,13.38
2024-01-19T13:09:10.891Z,11.95
2024-01-19T13:11:37.554Z,14.43
2024-01-19T13:14:05.097Z,11.30
2024-01-19T13:16:33.330Z,11.65
2024-01-19T13:19:04.302Z,8.10
2024-01-19T13:21:31.723Z,9.00
2024-01-19T13:23:58.776Z,9.80
2024-01-19T13:26:25.893Z,8.05
2024-01-19T13:28:52.766Z,12.02
2024-01-19T13:31:19.768Z,11.88
2024-01-19T13:33:47.474Z,14.90
2024-01-19T13:36:16.648Z,8.98
2024-01-19T13:38:44.679Z,15.10
2024-01-19T13:41:12.683Z,11.43
2024-01-19T13:43:45.766Z,11.32
2024-01-19T13:46:15.121Z,10.88
2024-01-19T13:48:43.252Z,11.77
2024-01-19T13:51:10.466Z,11.70
2024-01-19T13:53:37.181Z,9.70
2024-01-19T13:56:04.623Z,10.77
2024-01-19T13:58:31.323Z,8.48
2024-01-19T14:00:58.254Z,11.32
2024-01-19T14:03:25.154Z,8.13
2024-01-19T14:05:52.028Z,13.68
2024-01-19T14:08:20.721Z,9.40
2024-01-19T14:10:50.180Z,11.60
2024-01-19T14:13:18.137Z,9.55
2024-01-19T14:15:52.130Z,9.27
2024-01-19T14:18:19.692Z,9.73
2024-01-19T14:20:47.709Z,10.75
2024-01-19T14:23:14.736Z,11.27
2024-01-19T14:25:41.528Z,9.30
2024-01-19T14:28:10.426Z,9.85
2024-01-19T14:30:37.267Z,16.85
2024-01-19T14:33:04.367Z,14.50
2024-01-19T14:35:31.097Z,12.10
2024-01-19T14:37:58.334Z,12.63
2024-01-19T14:40:25.009Z,10.82
2024-01-19T14:42:54.595Z,10.98
2024-01-19T14:45:23.621Z,12.10
2024-01-19T14:47:50.407Z,14.60
2024-01-19T14:50:17.461Z,13.82
2024-01-19T14:52:46.083Z,16.70
2024-01-19T14:55:14.361Z,10.35
2024-01-19T14:57:40.992Z,10.93
2024-01-19T15:00:09.385Z,12.23
2024-01-19T15:02:37.436Z,10.20
2024-01-19T15:05:05.321Z,12.68
2024-01-19T15:07:33.446Z,10.25
2024-01-19T15:10:00.308Z,11.27
2024-01-19T15:12:27.058Z,12.38
2024-01-19T15:14:54.428Z,16.42
2024-01-19T15:17:21.380Z,13.05
2024-01-19T15:19:53.504Z,12.95
2024-01-19T15:22:21.124Z,11.43
2024-01-19T15:24:48.871Z,10.25
2024-01-19T15:27:15.512Z,11.50
2024-01-19T15:29:42.540Z,15.23
2024-01-19T15:32:09.310Z,13.40
2024-01-19T15:34:35.990Z,9.93
2024-01-19T15:37:02.662Z,10.85
2024-01-19T15:39:29.259Z,14.52
2024-01-19T15:41:57.218Z,15.65
2024-01-19T15:44:25.367Z,13.05
2024-01-19T15:46:52.008Z,13.00
2024-01-19T15:49:18.787Z,18.13
2024-01-19T15:51:45.378Z,19.17
2024-01-19T15:54:11.984Z,16.38
2024-01-19T15:56:38.978Z,15.75
2024-01-19T15:59:08.155Z,13.85
2024-01-19T16:01:39.661Z,14.05
2024-01-19T16:04:06.955Z,17.67
2024-01-19T16:06:33.510Z,13.90
2024-01-19T16:09:00.161Z,21.33
2024-01-19T16:11:26.716Z,18.35
2024-01-19T16:13:53.306Z,17.80
2024-01-19T16:16:20.032Z,18.83
2024-01-19T16:18:46.714Z,16.67
2024-01-19T16:21:21.021Z,16.73
2024-01-19T16:23:47.891Z,17.40
2024-01-19T16:26:19.008Z,18.83
2024-01-19T16:28:46.896Z,22.63
2024-01-19T16:31:14.582Z,19.60
2024-01-19T16:33:41.145Z,22.40
2024-01-19T16:36:08.429Z,21.75
2024-01-19T16:38:35.016Z,24.67
2024-01-19T16:41:01.737Z,19.33
2024-01-19T16:43:28.643Z,21.73
2024-01-19T16:45:55.538Z,22.70
2024-01-19T16:48:23.733Z,22.67
2024-01-19T16:50:51.379Z,25.48
2024-01-19T16:53:18.014Z,26.58
2024-01-19T16:55:44.834Z,31.63
2024-01-19T16:58:11.696Z,25.23
2024-01-19T17:00:38.433Z,28.02
2024-01-19T17:03:05.348Z,27.13
2024-01-19T17:05:32.012Z,25.20
2024-01-19T17:07:58.720Z,27.80
2024-01-19T17:10:25.301Z,27.17
2024-01-19T17:12:51.878Z,24.88
2024-01-19T17:15:18.501Z,24.55
2024-01-19T17:17:46.107Z,30.92
2024-01-19T17:20:12.896Z,28.88
2024-01-19T17:22:39.820Z,30.63
2024-01-19T17:25:06.817Z,31.40
2024-01-19T17:27:33.410Z,26.15
2024-01-19T17:30:00.053Z,27.80
2024-01-19T17:32:27.130Z,25.35
2024-01-19T17:34:53.965Z,34.40
2024-01-19T17:37:20.744Z,29.65
2024-01-19T17:39:47.494Z,29.67
2024-01-19T17:42:14.190Z,32.17
2024-01-19T17:44:41.325Z,45.55
2024-01-19T17:47:07.893Z,40.45
2024-01-19T17:49:34.542Z,34.40
2024-01-19T17:52:01.130Z,39.70
2024-01-19T17:54:31.922Z,31.95
2024-01-19T17:56:58.643Z,34.10
2024-01-19T17:59:25.939Z,33.63
2024-01-19T18:01:52.685Z,40.60
2024-01-19T18:04:20.843Z,35.88
2024-01-19T18:06:47.731Z,36.72
2024-01-19T18:09:16.421Z,40.92
2024-01-19T18:11:45.610Z,40.60
2024-01-19T18:14:12.721Z,40.40
2024-01-19T18:16:39.922Z,42.83
2024-01-19T18:19:06.761Z,36.20
2024-01-19T18:21:35.220Z,47.58
2024-01-19T18:24:03.582Z,45.58
2024-01-19T18:26:30.274Z,42.72
2024-01-19T18:28:57.035Z,43.05
2024-01-19T18:31:24.326Z,42.92
2024-01-19T18:33:51.246Z,49.72
2024-01-19T18:36:19.991Z,49.17
2024-01-19T18:38:46.594Z,47.50
2024-01-19T18:41:13.271Z,44.85
2024-01-19T18:43:39.947Z,52.20
2024-01-19T18:46:06.547Z,55.15
2024-01-19T18:48:37.686Z,50.33
2024-01-19T18:51:05.258Z,53.33
2024-01-19T18:53:33.590Z,52.13
2024-01-19T18:56:00.566Z,50.78
2024-01-19T18:58:30.099Z,49.30
2024-01-19T19:00:57.390Z,54.75
2024-01-19T19:03:24.047Z,51.97
2024-01-19T19:05:51.126Z,51.10
2024-01-19T19:08:19.671Z,48.80
2024-01-19T19:10:49.363Z,50.10
2024-01-19T19:13:16.290Z,51.53
2024-01-19T19:15:43.258Z,46.75
2024-01-19T19:18:11.409Z,45.22
2024-01-19T19:20:38.520Z,50.03
2024-01-19T19:23:05.294Z,54.70
2024-01-19T19:25:31.895Z,54.47
2024-01-19T19:27:58.611Z,52.60
2024-01-19T19:30:26.247Z,46.22
2024-01-19T19:32:54.285Z,50.25
2024-01-19T19:35:21.319Z,49.28
2024-01-19T19:37:48.070Z,54.20
2024-01-19T19:40:14.825Z,46.85
2024-01-19T19:42:41.418Z,46.78
2024-01-19T19:45:09.369Z,46.55
2024-01-19T19:47:36.060Z,45.47
2024-01-19T19:50:03.901Z,53.10
2024-01-19T19:52:30.475Z,47.35
2024-01-19T19:54:57.627Z,45.28
2024-01-19T19:57:24.193Z,52.55
2024-01-19T19:59:50.827Z,61.05
2024-01-19T20:02:17.510Z,50.58
2024-01-19T20:04:44.198Z,45.33
2024-01-19T20:07:10.983Z,48.08
2024-01-19T20:09:37.724Z,43.47
2024-01-19T20:12:04.872Z,45.67
2024-01-19T20:14:34.337Z,47.58
2024-01-19T20:17:01.506Z,45.45
2024-01-19T20:19:28.138Z,57.20
2024-01-19T20:21:54.914Z,48.17
2024-01-19T20:24:21.484Z,52.10
2024-01-19T20:26:48.696Z,53.08
2024-01-19T20:29:15.436Z,50.92
2024-01-19T20:31:42.134Z,52.78
2024-01-19T20:34:08.787Z,52.40
2024-01-19T20:36:35.750Z,57.35
2024-01-19T20:39:02.680Z,45.03
2024-01-19T20:41:30.192Z,47.22
2024-01-19T20:43:56.840Z,52.53
2024-01-19T20:46:23.473Z,53.75
2024-01-19T20:48:50.070Z,54.78
2024-01-19T20:51:16.657Z,58.83
2024-01-19T20:53:44.434Z,48.28
2024-01-19T20:56:11.136Z,56.67
2024-01-19T20:58:37.967Z,50.20
2024-01-19T21:01:04.668Z,55.42
2024-01-19T21:03:32.313Z,56.67
2024-01-19T21:05:59.353Z,57.55
2024-01-19T21:08:28.117Z,49.05
2024-01-19T21:10:55.355Z,58.95
2024-01-19T21:13:26.105Z,55.08
2024-01-19T21:15:52.718Z,56.22
2024-01-19T21:18:19.712Z,52.72
2024-01-19T21:20:46.736Z,57.38
2024-01-19T21:23:13.683Z,64.40
2024-01-19T21:25:40.894Z,55.15
2024-01-19T21:28:07.675Z,58.83
2024-01-19T21:30:34.723Z,63.28
2024-01-19T21:33:01.373Z,68.95
2024-01-19T21:35:28.158Z,70.97
2024-01-19T21:37:54.938Z,66.07
2024-01-19T21:40:22.059Z,67.97
2024-01-19T21:42:48.879Z,72.60
2024-01-19T21:45:16.242Z,68.22
2024-01-19T21:47:43.901Z,76.25
2024-01-19T21:50:11.649Z,67.80
2024-01-19T21:52:38.633Z,65.30
2024-01-19T21:55:07.678Z,68.95
2024-01-19T21:57:35.121Z,66.53
2024-01-19T22:00:02.601Z,66.40
2024-01-19T22:02:41.405Z,72.43
2024-01-19T22:05:09.787Z,71.10
2024-01-19T22:07:36.918Z,74.30
2024-01-19T22:10:03.895Z,80.60
2024-01-19T22:12:30.469Z,78.20
2024-01-19T22:14:57.070Z,72.53
2024-01-19T22:17:23.824Z,65.18
2024-01-19T22:19:50.715Z,77.30
2024-01-19T22:22:17.489Z,76.38
2024-01-19T22:24:44.065Z,71.43
2024-01-19T22:27:10.789Z,65.07
2024-01-19T22:29:41.064Z,75.38
2024-01-19T22:32:07.894Z,74.97
2024-01-19T22:34:34.854Z,89.30
2024-01-19T22:37:01.946Z,72.53
2024-01-19T22:39:29.091Z,67.05
2024-01-19T22:41:55.880Z,73.15
2024-01-19T22:44:22.558Z,68.63
2024-01-19T22:46:49.362Z,77.70
2024-01-19T22:49:16.180Z,70.30
2024-01-19T22:51:42.980Z,79.22
2024-01-19T22:54:09.890Z,77.13
2024-01-19T22:56:36.699Z,78.90
2024-01-19T22:59:04.651Z,79.18
2024-01-19T23:01:31.699Z,63.63
2024-01-19T23:03:58.589Z,75.25
2024-01-19T23:06:26.229Z,76.97
2024-01-19T23:08:53.044Z,75.68
2024-01-19T23:11:19.776Z,65.82
2024-01-19T23:13:46.819Z,72.85
2024-01-19T23:16:13.587Z,70.82
2024-01-19T23:18:41.231Z,78.05
2024-01-19T23:21:10.428Z,78.78
2024-01-19T23:23:38.763Z,75.82
2024-01-19T23:26:05.919Z,71.68
2024-01-19T23:28:32.550Z,69.28
2024-01-19T23:30:59.521Z,66.90
2024-01-19T23:33:26.504Z,65.20
2024-01-19T23:35:53.709Z,64.68
2024-01-19T23:38:20.520Z,67.13
2024-01-19T23:40:47.625Z,60.53
2024-01-19T23:43:14.328Z,62.50
2024-01-19T23:45:41.029Z,59.78
2024-01-19T23:48:07.994Z,65.97
2024-01-19T23:50:37.920Z,60.78
2024-01-19T23:53:04.520Z,66.40
2024-01-19T23:55:31.183Z,64.40
2024-01-19T23:57:57.783Z,67.82
